RPi & Temperatures at JO21ut

Last graph updates: Tuesday 18 June 2019 09:02 CEST

Sunrise: 05:15 & Sunset: 22:01 The Sun is currently visible at an elevation of degrees and azimut of and 152001615 Km from the Earth
Moonrise: 23:03 & Moonset: 6:13 Full Moon The Moon is 394899 Km from the Earth
Find here more details on MARS.

09:10:54 up 1 day, 21:01, 0 users, load average: 1.21, 1.11, 1.05
Current CPU frequency is: 1000 Mhz
Current GPU temperature: 32.552°C
Current inside temperature is 23.25°C with a humidity of 70.74%
Second inside temperature is 23.4°C with a pressure of 1011.68 Hpa (29.64 inHg) and an uncorrected altitude of 12.66 m
ds18b20 now showing 23.3°C

All the sensors I use, DHT22 | BMP085 | MPU6050 | BH1750FVI | MMA7455 | HMC5883L | MPL3115A2 | DS1307 | HTU21 | AM2321 | DS3231 | INA219 | LM75A , and it's current readout can be viewed here please be patient as it needs to read all sensors data. The page loads after about 10 seconds. In our forum more details can be found such as the used software/sources. Feel free to add yours also..


Pressure BMP085
Pressure BMP085
Pressure BMP085
Pressure BMP085
PI CPU Temp
Inet Volkel temp
Inside temp BMP085
Humidity BMP085
PI CPU Temp
Inet Volkel temp
Inside temp BMP085
Humidity BMP085
PI CPU Temp
Inet Volkel temp
Inside temp BMP085
Humidity BMP085
PI CPU Temp
Inet Volkel temp
Inside temp BMP085
Humidity BMP085
PI CPU Temp
Inet Volkel temp
Inside temp BMP085
Humidity BMP085
Inside light BH1750FV
Inside light BH1750FV
Inside light BH1750FV
Inside light BH1750FV
Inside light BH1750FV
Inside light BH1750FV
Sunlight hours
 

Sun & Moon height


Wijchen weather

Weer Widget
ScreenSaver yr.no

Sun Moon Earth


EHEH 180655Z AUTO VRB02KT 9999 SCT260 OVC320 21/15 Q1015 BLU VRB02KT CAVOK EHEH 180655Z AUTO VRB02KT 9999 SCT260 OVC320 21/15 Q1015 BLU VRB02KT CAVOK EHEH 180655Z AUTO VRB02KT 9999 SCT260 OVC320 21/15 Q1015 BLU VRB02KT CAVOK

Weather data from Volkel [NL] EHVK


16 minutes ago, at 06:55 UTC, the wind was blowing at a speed of 1.0 meters per second (2.3 miles per hour/2 knots) from variable directions (variable directions) in Volkel [EHVK], Netherlands. The temperature was 21 °C (70 °F) with a dewpoint of 15 °C (59 °F), and the pressure was 1,015 hPa (29.97 inHg). The relative humidity was 68.6%. There are no clouds below 1,524 meter (5,000 feet). The visibility was >10 kilometers (>6.2 miles).




View code:

Contact me  |  My Raspberry PI forum